Kirkland, WA

7:48 AM PST on December 04, 2016 (GMT -0800)
Kirkland, Wa | | Change Station
Active Advisory: Winter Weather Advisory

Elev 233 ft 47.69 °N, 122.19 °W | Updated 5 seconds ago

Light Rain
Light Rain
39.2 °F
Feels Like 39 °F
N
2.1
Wind Variable Wind from NW
Gusts 3.8 mph

Today
High -- | Low -- °F
--% Chance of Precip.
Yesterday
High -- | Low -- °F
Precip. -- in
Pressure 30.01 in
Visibility 7.0 miles
Clouds Few 2000 ft
Overcast 2700 ft
Windchill 39 °F
Dew Point 37 °F
Humidity 92%
Rainfall 0.22 in
Snow Depth Not available.
7:40 AM 4:17 PM
Waxing Crescent, 23% visible
METAR KBFI 041453Z VRB03KT 7SM -RA FEW020 OVC027 05/03 A3000 RMK AO2 SLP160 P0004 60012 T00500033 53002 $
Pressure 30.01 in
Visibility 7.0 miles
Clouds Few 2000 ft
Overcast 2700 ft
Windchill 39 °F
Dew Point 37 °F
Humidity 92%
Rainfall 0.22 in
Snow Depth Not available.
7:40 AM 4:17 PM
Waxing Crescent, 23% visible
METAR KBFI 041453Z VRB03KT 7SM -RA FEW020 OVC027 05/03 A3000 RMK AO2 SLP160 P0004 60012 T00500033 53002 $

10-Day Weather Forecast

Almanac

Astronomy

Dec. 04, 2016 Rise Set
Actual Time
Civil Twilight
Nautical Twilight
Astronomical Twilight
Moon
Length of Visible Light
Length of Day
Tomorrow will be .
, % of the Moon is Illuminated

Today's Extremes

State Highs State Lows

Community

WunderPhotos

Upload Photos

1,955,609 photos uploaded!

WunderBlog® & News

Nearby

Air Quality

  Air Quality AQ Index Pollutant
Not available.

Snow Depth

Station Depth Elevation

Earthquake Activity

City Distance Mag. Time & Date
Minimum magnitude displayed is 2.5.

Coastal Water Temperatures

Place Temperature

Stations

Nearby Weather Stations

Station Location Temp. Windchill Dew Point Humidity Wind Precip. Elev Updated Type
                   

Watches & Warnings

Winter Weather Advisory
Issued: 5:45 AM PST Dec. 4, 2016 – National Weather Service

... Winter Weather Advisory in effect from 4 am to noon PST Monday
mainly above 500 feet...

The National Weather Service in Seattle has issued a Winter Weather
Advisory for snow... which is in effect from 4 am to noon PST
Monday.

* Timing... Monday morning between 4 am and noon.

* Snow amounts... up to 2 inches mainly above 500 feet.

* Snow levels... mainly near 500 feet.

* Impacts... hazardous driving conditions are possible during the
morning commute on Monday mainly on the higher hills.

Precautionary/preparedness actions...

A Winter Weather Advisory for snow means that periods of snow
could cause travel difficulties. Use caution while driving.